sensor_id;sensor_type;location;lat;lon;timestamp;temperature;humidity
62998;DHT22;55949;52.590;7.330;2023-04-24T00:00:34;10.90;99.90
62998;DHT22;55949;52.590;7.330;2023-04-24T00:01:35;10.90;99.90
62998;DHT22;55949;52.590;7.330;2023-04-24T00:02:37;11.00;99.90
62998;DHT22;55949;52.590;7.330;2023-04-24T00:03:40;11.00;99.90
62998;DHT22;55949;52.590;7.330;2023-04-24T00:04:42;11.10;99.90
62998;DHT22;55949;52.590;7.330;2023-04-24T00:05:44;11.00;99.90
62998;DHT22;55949;52.590;7.330;2023-04-24T00:06:45;10.90;99.90
62998;DHT22;55949;52.590;7.330;2023-04-24T00:07:50;10.90;99.90
62998;DHT22;55949;52.590;7.330;2023-04-24T00:08:53;11.00;99.90
62998;DHT22;55949;52.590;7.330;2023-04-24T00:09:53;11.00;99.90
62998;DHT22;55949;52.590;7.330;2023-04-24T00:10:54;11.00;99.90
62998;DHT22;55949;52.590;7.330;2023-04-24T00:11:55;10.90;99.90
62998;DHT22;55949;52.590;7.330;2023-04-24T00:12:56;11.00;99.90
62998;DHT22;55949;52.590;7.330;2023-04-24T00:13:57;10.90;99.90
62998;DHT22;55949;52.590;7.330;2023-04-24T00:14:57;10.90;99.90
62998;DHT22;55949;52.590;7.330;2023-04-24T00:15:58;10.90;99.90
62998;DHT22;55949;52.590;7.330;2023-04-24T00:16:59;11.00;99.90
62998;DHT22;55949;52.590;7.330;2023-04-24T00:17:59;11.10;99.90
62998;DHT22;55949;52.590;7.330;2023-04-24T00:19:01;11.10;99.90
62998;DHT22;55949;52.590;7.330;2023-04-24T00:20:03;11.20;99.90
62998;DHT22;55949;52.590;7.330;2023-04-24T00:21:05;11.10;99.90
62998;DHT22;55949;52.590;7.330;2023-04-24T00:22:05;11.00;99.90
62998;DHT22;55949;52.590;7.330;2023-04-24T00:23:06;10.90;99.90
62998;DHT22;55949;52.590;7.330;2023-04-24T00:24:07;11.00;99.90
62998;DHT22;55949;52.590;7.330;2023-04-24T00:25:09;10.70;99.90
62998;DHT22;55949;52.590;7.330;2023-04-24T00:26:10;10.80;99.90
62998;DHT22;55949;52.590;7.330;2023-04-24T00:27:10;10.80;99.90
62998;DHT22;55949;52.590;7.330;2023-04-24T00:28:11;10.90;99.90
62998;DHT22;55949;52.590;7.330;2023-04-24T00:29:12;10.90;99.90
62998;DHT22;55949;52.590;7.330;2023-04-24T00:30:13;10.80;99.90
62998;DHT22;55949;52.590;7.330;2023-04-24T00:31:14;10.70;99.90
62998;DHT22;55949;52.590;7.330;2023-04-24T00:32:15;10.80;99.90
62998;DHT22;55949;52.590;7.330;2023-04-24T00:33:16;10.80;99.90
62998;DHT22;55949;52.590;7.330;2023-04-24T00:34:16;10.90;99.90
62998;DHT22;55949;52.590;7.330;2023-04-24T00:35:17;10.80;99.90
62998;DHT22;55949;52.590;7.330;2023-04-24T00:36:20;10.80;99.90
62998;DHT22;55949;52.590;7.330;2023-04-24T00:37:21;10.90;99.90
62998;DHT22;55949;52.590;7.330;2023-04-24T00:38:21;10.90;99.90
62998;DHT22;55949;52.590;7.330;2023-04-24T00:39:22;10.70;99.90
62998;DHT22;55949;52.590;7.330;2023-04-24T00:40:23;10.80;99.90
62998;DHT22;55949;52.590;7.330;2023-04-24T00:41:27;10.80;99.90
62998;DHT22;55949;52.590;7.330;2023-04-24T00:42:27;10.80;99.90
62998;DHT22;55949;52.590;7.330;2023-04-24T00:43:28;10.80;99.90
62998;DHT22;55949;52.590;7.330;2023-04-24T00:44:29;10.80;99.90
62998;DHT22;55949;52.590;7.330;2023-04-24T00:45:30;10.90;99.90
62998;DHT22;55949;52.590;7.330;2023-04-24T00:46:31;11.10;99.90
62998;DHT22;55949;52.590;7.330;2023-04-24T00:47:35;11.10;99.90
62998;DHT22;55949;52.590;7.330;2023-04-24T00:48:38;11.10;99.90
62998;DHT22;55949;52.590;7.330;2023-04-24T00:49:39;11.10;99.90
62998;DHT22;55949;52.590;7.330;2023-04-24T00:50:40;11.00;99.90
62998;DHT22;55949;52.590;7.330;2023-04-24T00:51:40;10.80;99.90
62998;DHT22;55949;52.590;7.330;2023-04-24T00:52:45;10.90;99.90
62998;DHT22;55949;52.590;7.330;2023-04-24T00:53:46;10.90;99.90
62998;DHT22;55949;52.590;7.330;2023-04-24T00:54:47;10.80;99.90
62998;DHT22;55949;52.590;7.330;2023-04-24T00:55:48;10.80;99.90
62998;DHT22;55949;52.590;7.330;2023-04-24T00:56:49;10.80;99.90
62998;DHT22;55949;52.590;7.330;2023-04-24T00:57:51;10.80;99.90
62998;DHT22;55949;52.590;7.330;2023-04-24T00:58:52;10.70;99.90
62998;DHT22;55949;52.590;7.330;2023-04-24T00:59:54;10.70;99.90
62998;DHT22;55949;52.590;7.330;2023-04-24T01:00:56;10.80;99.90
62998;DHT22;55949;52.590;7.330;2023-04-24T01:01:58;10.60;99.90
62998;DHT22;55949;52.590;7.330;2023-04-24T01:03:01;10.70;99.90
62998;DHT22;55949;52.590;7.330;2023-04-24T01:04:04;10.80;99.90
62998;DHT22;55949;52.590;7.330;2023-04-24T01:05:08;10.80;99.90
62998;DHT22;55949;52.590;7.330;2023-04-24T01:06:09;11.00;99.90
62998;DHT22;55949;52.590;7.330;2023-04-24T01:07:10;10.90;99.90
62998;DHT22;55949;52.590;7.330;2023-04-24T01:08:11;10.80;99.90
62998;DHT22;55949;52.590;7.330;2023-04-24T01:09:12;10.90;99.90
62998;DHT22;55949;52.590;7.330;2023-04-24T01:10:15;11.00;99.90
62998;DHT22;55949;52.590;7.330;2023-04-24T01:11:17;10.80;99.90
62998;DHT22;55949;52.590;7.330;2023-04-24T01:12:19;10.80;99.90
62998;DHT22;55949;52.590;7.330;2023-04-24T01:13:20;10.70;99.90
62998;DHT22;55949;52.590;7.330;2023-04-24T01:14:21;10.70;99.90
62998;DHT22;55949;52.590;7.330;2023-04-24T01:15:22;10.80;99.90
62998;DHT22;55949;52.590;7.330;2023-04-24T01:16:23;10.80;99.90
62998;DHT22;55949;52.590;7.330;2023-04-24T01:17:24;11.00;99.90
62998;DHT22;55949;52.590;7.330;2023-04-24T01:18:24;11.10;99.90
62998;DHT22;55949;52.590;7.330;2023-04-24T01:19:25;10.80;99.90
62998;DHT22;55949;52.590;7.330;2023-04-24T01:20:26;10.80;99.90
62998;DHT22;55949;52.590;7.330;2023-04-24T01:21:27;10.90;99.90
62998;DHT22;55949;52.590;7.330;2023-04-24T01:22:30;11.00;99.90
62998;DHT22;55949;52.590;7.330;2023-04-24T01:23:31;11.00;99.90
62998;DHT22;55949;52.590;7.330;2023-04-24T01:24:32;11.10;99.90
62998;DHT22;55949;52.590;7.330;2023-04-24T01:25:33;11.20;99.90
62998;DHT22;55949;52.590;7.330;2023-04-24T01:26:34;11.10;99.90
62998;DHT22;55949;52.590;7.330;2023-04-24T01:27:38;11.40;99.90
62998;DHT22;55949;52.590;7.330;2023-04-24T01:28:39;11.30;99.90
62998;DHT22;55949;52.590;7.330;2023-04-24T01:29:40;11.30;99.90
62998;DHT22;55949;52.590;7.330;2023-04-24T01:30:41;11.40;99.90
62998;DHT22;55949;52.590;7.330;2023-04-24T01:31:42;11.50;99.90
62998;DHT22;55949;52.590;7.330;2023-04-24T01:32:44;11.60;99.90
62998;DHT22;55949;52.590;7.330;2023-04-24T01:33:46;11.80;99.90
62998;DHT22;55949;52.590;7.330;2023-04-24T01:34:48;11.70;99.90
62998;DHT22;55949;52.590;7.330;2023-04-24T01:35:49;11.50;99.90
62998;DHT22;55949;52.590;7.330;2023-04-24T01:36:50;11.50;99.90
62998;DHT22;55949;52.590;7.330;2023-04-24T01:37:51;11.50;99.90
62998;DHT22;55949;52.590;7.330;2023-04-24T01:38:52;11.50;99.90
62998;DHT22;55949;52.590;7.330;2023-04-24T01:39:52;11.40;99.90
62998;DHT22;55949;52.590;7.330;2023-04-24T01:40:53;11.30;99.90
62998;DHT22;55949;52.590;7.330;2023-04-24T01:41:55;11.20;99.90
62998;DHT22;55949;52.590;7.330;2023-04-24T01:42:57;11.00;99.90
62998;DHT22;55949;52.590;7.330;2023-04-24T01:43:57;11.00;99.90
62998;DHT22;55949;52.590;7.330;2023-04-24T01:44:59;11.00;99.90
62998;DHT22;55949;52.590;7.330;2023-04-24T01:46:01;11.00;99.90
62998;DHT22;55949;52.590;7.330;2023-04-24T01:47:02;10.90;99.90
62998;DHT22;55949;52.590;7.330;2023-04-24T01:48:03;10.90;99.90
62998;DHT22;55949;52.590;7.330;2023-04-24T01:49:04;10.80;99.90
62998;DHT22;55949;52.590;7.330;2023-04-24T01:50:05;11.00;99.90
62998;DHT22;55949;52.590;7.330;2023-04-24T01:51:06;11.00;99.90
62998;DHT22;55949;52.590;7.330;2023-04-24T01:52:07;11.20;99.90
62998;DHT22;55949;52.590;7.330;2023-04-24T01:53:08;11.30;99.90
62998;DHT22;55949;52.590;7.330;2023-04-24T01:54:09;11.30;99.90
62998;DHT22;55949;52.590;7.330;2023-04-24T01:55:10;11.40;99.90
62998;DHT22;55949;52.590;7.330;2023-04-24T01:56:11;11.50;99.90
62998;DHT22;55949;52.590;7.330;2023-04-24T01:57:12;11.60;99.90
62998;DHT22;55949;52.590;7.330;2023-04-24T01:58:13;11.50;99.90
62998;DHT22;55949;52.590;7.330;2023-04-24T01:59:15;11.60;99.90
62998;DHT22;55949;52.590;7.330;2023-04-24T02:00:17;11.60;99.90
62998;DHT22;55949;52.590;7.330;2023-04-24T02:01:19;11.60;99.90
62998;DHT22;55949;52.590;7.330;2023-04-24T02:02:20;11.70;99.90
62998;DHT22;55949;52.590;7.330;2023-04-24T02:03:21;11.80;99.90
62998;DHT22;55949;52.590;7.330;2023-04-24T02:04:22;11.60;99.90
62998;DHT22;55949;52.590;7.330;2023-04-24T02:05:23;11.60;99.90
62998;DHT22;55949;52.590;7.330;2023-04-24T02:06:23;11.60;99.90
62998;DHT22;55949;52.590;7.330;2023-04-24T02:07:24;11.50;99.90
62998;DHT22;55949;52.590;7.330;2023-04-24T02:08:25;11.40;99.90
62998;DHT22;55949;52.590;7.330;2023-04-24T02:09:25;11.20;99.90
62998;DHT22;55949;52.590;7.330;2023-04-24T02:10:26;11.10;99.90
62998;DHT22;55949;52.590;7.330;2023-04-24T02:11:27;11.20;99.90
62998;DHT22;55949;52.590;7.330;2023-04-24T02:12:28;11.00;99.90
62998;DHT22;55949;52.590;7.330;2023-04-24T02:13:28;10.90;99.90
62998;DHT22;55949;52.590;7.330;2023-04-24T02:14:29;11.10;99.90
62998;DHT22;55949;52.590;7.330;2023-04-24T02:15:30;11.10;99.90
62998;DHT22;55949;52.590;7.330;2023-04-24T02:16:31;11.20;99.90
62998;DHT22;55949;52.590;7.330;2023-04-24T02:17:33;11.10;99.90
62998;DHT22;55949;52.590;7.330;2023-04-24T02:18:33;11.00;99.90
62998;DHT22;55949;52.590;7.330;2023-04-24T02:19:34;11.20;99.90
62998;DHT22;55949;52.590;7.330;2023-04-24T02:20:35;11.20;99.90
62998;DHT22;55949;52.590;7.330;2023-04-24T02:21:35;11.20;99.90
62998;DHT22;55949;52.590;7.330;2023-04-24T02:22:36;11.10;99.90
62998;DHT22;55949;52.590;7.330;2023-04-24T02:23:37;11.10;99.90
62998;DHT22;55949;52.590;7.330;2023-04-24T02:24:38;11.10;99.90
62998;DHT22;55949;52.590;7.330;2023-04-24T02:25:39;11.00;99.90
62998;DHT22;55949;52.590;7.330;2023-04-24T02:26:40;11.10;99.90
62998;DHT22;55949;52.590;7.330;2023-04-24T02:27:40;11.00;99.90
62998;DHT22;55949;52.590;7.330;2023-04-24T02:28:41;11.00;99.90
62998;DHT22;55949;52.590;7.330;2023-04-24T02:29:41;11.00;99.90
62998;DHT22;55949;52.590;7.330;2023-04-24T02:30:42;11.20;99.90
62998;DHT22;55949;52.590;7.330;2023-04-24T02:31:43;11.30;99.90
62998;DHT22;55949;52.590;7.330;2023-04-24T02:32:43;11.40;99.90
62998;DHT22;55949;52.590;7.330;2023-04-24T02:33:44;11.30;99.90
62998;DHT22;55949;52.590;7.330;2023-04-24T02:34:45;11.40;99.90
62998;DHT22;55949;52.590;7.330;2023-04-24T02:35:45;11.50;99.90
62998;DHT22;55949;52.590;7.330;2023-04-24T02:36:46;11.40;99.90
62998;DHT22;55949;52.590;7.330;2023-04-24T02:37:47;11.20;99.90
62998;DHT22;55949;52.590;7.330;2023-04-24T02:38:47;11.20;99.90
62998;DHT22;55949;52.590;7.330;2023-04-24T02:39:48;11.00;99.90
62998;DHT22;55949;52.590;7.330;2023-04-24T02:40:49;11.00;99.90
62998;DHT22;55949;52.590;7.330;2023-04-24T02:41:50;10.80;99.90
62998;DHT22;55949;52.590;7.330;2023-04-24T02:42:50;11.00;99.90
62998;DHT22;55949;52.590;7.330;2023-04-24T02:43:51;11.00;99.90
62998;DHT22;55949;52.590;7.330;2023-04-24T02:44:51;11.00;99.90
62998;DHT22;55949;52.590;7.330;2023-04-24T02:45:52;11.10;99.90
62998;DHT22;55949;52.590;7.330;2023-04-24T02:46:53;11.20;99.90
62998;DHT22;55949;52.590;7.330;2023-04-24T02:47:53;11.20;99.90
62998;DHT22;55949;52.590;7.330;2023-04-24T02:48:54;11.00;99.90
62998;DHT22;55949;52.590;7.330;2023-04-24T02:49:55;10.90;99.90
62998;DHT22;55949;52.590;7.330;2023-04-24T02:50:56;11.00;99.90
62998;DHT22;55949;52.590;7.330;2023-04-24T02:51:57;10.80;99.90
62998;DHT22;55949;52.590;7.330;2023-04-24T02:52:58;10.90;99.90
62998;DHT22;55949;52.590;7.330;2023-04-24T02:53:59;11.00;99.90
62998;DHT22;55949;52.590;7.330;2023-04-24T02:54:59;11.00;99.90
62998;DHT22;55949;52.590;7.330;2023-04-24T02:56:00;11.00;99.90
62998;DHT22;55949;52.590;7.330;2023-04-24T02:57:01;11.00;99.90
62998;DHT22;55949;52.590;7.330;2023-04-24T02:58:01;10.90;99.90
62998;DHT22;55949;52.590;7.330;2023-04-24T02:59:02;11.00;99.90
62998;DHT22;55949;52.590;7.330;2023-04-24T03:00:03;11.00;99.90
62998;DHT22;55949;52.590;7.330;2023-04-24T03:01:07;10.80;99.90
62998;DHT22;55949;52.590;7.330;2023-04-24T03:02:08;10.70;99.90
62998;DHT22;55949;52.590;7.330;2023-04-24T03:03:09;10.80;99.90
62998;DHT22;55949;52.590;7.330;2023-04-24T03:04:09;10.90;99.90
62998;DHT22;55949;52.590;7.330;2023-04-24T03:05:10;10.90;99.90
62998;DHT22;55949;52.590;7.330;2023-04-24T03:06:15;10.90;99.90
62998;DHT22;55949;52.590;7.330;2023-04-24T03:07:16;11.10;99.90
62998;DHT22;55949;52.590;7.330;2023-04-24T03:08:17;11.10;99.90
62998;DHT22;55949;52.590;7.330;2023-04-24T03:09:18;11.20;99.90
62998;DHT22;55949;52.590;7.330;2023-04-24T03:10:19;11.30;99.90
62998;DHT22;55949;52.590;7.330;2023-04-24T03:11:20;11.10;99.90
62998;DHT22;55949;52.590;7.330;2023-04-24T03:12:20;10.90;99.90
62998;DHT22;55949;52.590;7.330;2023-04-24T03:13:24;11.00;99.90
62998;DHT22;55949;52.590;7.330;2023-04-24T03:14:24;11.10;99.90
62998;DHT22;55949;52.590;7.330;2023-04-24T03:15:25;10.90;99.90
62998;DHT22;55949;52.590;7.330;2023-04-24T03:16:26;10.90;99.90
62998;DHT22;55949;52.590;7.330;2023-04-24T03:17:27;10.90;99.90
62998;DHT22;55949;52.590;7.330;2023-04-24T03:18:28;11.00;99.90
62998;DHT22;55949;52.590;7.330;2023-04-24T03:19:29;11.20;99.90
62998;DHT22;55949;52.590;7.330;2023-04-24T03:20:30;11.10;99.90
62998;DHT22;55949;52.590;7.330;2023-04-24T03:21:30;11.20;99.90
62998;DHT22;55949;52.590;7.330;2023-04-24T03:22:31;11.20;99.90
62998;DHT22;55949;52.590;7.330;2023-04-24T03:23:33;11.40;99.90
62998;DHT22;55949;52.590;7.330;2023-04-24T03:24:33;11.60;99.90
62998;DHT22;55949;52.590;7.330;2023-04-24T03:25:34;11.50;99.90
62998;DHT22;55949;52.590;7.330;2023-04-24T03:26:35;11.60;99.90
62998;DHT22;55949;52.590;7.330;2023-04-24T03:27:36;11.60;99.90
62998;DHT22;55949;52.590;7.330;2023-04-24T03:28:36;11.60;99.90
62998;DHT22;55949;52.590;7.330;2023-04-24T03:29:37;11.70;99.90
62998;DHT22;55949;52.590;7.330;2023-04-24T03:30:37;11.60;99.90
62998;DHT22;55949;52.590;7.330;2023-04-24T03:31:38;11.40;99.90
62998;DHT22;55949;52.590;7.330;2023-04-24T03:32:39;11.60;99.90
62998;DHT22;55949;52.590;7.330;2023-04-24T03:33:40;11.40;99.90
62998;DHT22;55949;52.590;7.330;2023-04-24T03:34:40;11.50;99.90
62998;DHT22;55949;52.590;7.330;2023-04-24T03:35:41;11.50;99.90
62998;DHT22;55949;52.590;7.330;2023-04-24T03:36:42;11.50;99.90
62998;DHT22;55949;52.590;7.330;2023-04-24T03:37:43;11.50;99.90
62998;DHT22;55949;52.590;7.330;2023-04-24T03:38:43;11.30;99.90
62998;DHT22;55949;52.590;7.330;2023-04-24T03:39:44;11.10;99.90
62998;DHT22;55949;52.590;7.330;2023-04-24T03:40:45;11.10;99.90
62998;DHT22;55949;52.590;7.330;2023-04-24T03:41:45;11.20;99.90
62998;DHT22;55949;52.590;7.330;2023-04-24T03:42:46;11.30;99.90
62998;DHT22;55949;52.590;7.330;2023-04-24T03:43:47;11.40;99.90
62998;DHT22;55949;52.590;7.330;2023-04-24T03:44:47;11.40;99.90
62998;DHT22;55949;52.590;7.330;2023-04-24T03:45:48;11.30;99.90
62998;DHT22;55949;52.590;7.330;2023-04-24T03:46:49;11.40;99.90
62998;DHT22;55949;52.590;7.330;2023-04-24T03:47:50;11.10;99.90
62998;DHT22;55949;52.590;7.330;2023-04-24T03:48:50;11.00;99.90
62998;DHT22;55949;52.590;7.330;2023-04-24T03:49:51;11.10;99.90
62998;DHT22;55949;52.590;7.330;2023-04-24T03:50:52;11.10;99.90
62998;DHT22;55949;52.590;7.330;2023-04-24T03:51:53;11.10;99.90
62998;DHT22;55949;52.590;7.330;2023-04-24T03:52:53;11.10;99.90
62998;DHT22;55949;52.590;7.330;2023-04-24T03:53:54;11.10;99.90
62998;DHT22;55949;52.590;7.330;2023-04-24T03:54:55;11.10;99.90
62998;DHT22;55949;52.590;7.330;2023-04-24T03:55:56;11.30;99.90
62998;DHT22;55949;52.590;7.330;2023-04-24T03:56:56;11.30;99.90
62998;DHT22;55949;52.590;7.330;2023-04-24T03:57:57;11.40;99.90
62998;DHT22;55949;52.590;7.330;2023-04-24T03:58:58;11.30;99.90
62998;DHT22;55949;52.590;7.330;2023-04-24T03:59:59;11.20;99.90
62998;DHT22;55949;52.590;7.330;2023-04-24T04:01:00;11.20;99.90
62998;DHT22;55949;52.590;7.330;2023-04-24T04:02:00;11.10;99.90
62998;DHT22;55949;52.590;7.330;2023-04-24T04:03:01;11.10;99.90
62998;DHT22;55949;52.590;7.330;2023-04-24T04:04:03;11.10;99.90
62998;DHT22;55949;52.590;7.330;2023-04-24T04:05:03;11.20;99.90
62998;DHT22;55949;52.590;7.330;2023-04-24T04:06:04;11.30;99.90
62998;DHT22;55949;52.590;7.330;2023-04-24T04:07:05;11.30;99.90
62998;DHT22;55949;52.590;7.330;2023-04-24T04:08:06;11.30;99.90
62998;DHT22;55949;52.590;7.330;2023-04-24T04:09:07;11.20;99.90
62998;DHT22;55949;52.590;7.330;2023-04-24T04:10:09;11.20;99.90
62998;DHT22;55949;52.590;7.330;2023-04-24T04:11:09;11.20;99.90
62998;DHT22;55949;52.590;7.330;2023-04-24T04:12:10;11.20;99.90
62998;DHT22;55949;52.590;7.330;2023-04-24T04:13:11;11.20;99.90
62998;DHT22;55949;52.590;7.330;2023-04-24T04:14:11;11.10;99.90
62998;DHT22;55949;52.590;7.330;2023-04-24T04:15:12;11.10;99.90
62998;DHT22;55949;52.590;7.330;2023-04-24T04:16:13;11.00;99.90
62998;DHT22;55949;52.590;7.330;2023-04-24T04:17:14;11.00;99.90
62998;DHT22;55949;52.590;7.330;2023-04-24T04:18:15;10.80;99.90
62998;DHT22;55949;52.590;7.330;2023-04-24T04:19:16;10.80;99.90
62998;DHT22;55949;52.590;7.330;2023-04-24T04:20:16;10.80;99.90
62998;DHT22;55949;52.590;7.330;2023-04-24T04:21:17;10.80;99.90
62998;DHT22;55949;52.590;7.330;2023-04-24T04:22:18;10.80;99.90
62998;DHT22;55949;52.590;7.330;2023-04-24T04:23:18;11.00;99.90
62998;DHT22;55949;52.590;7.330;2023-04-24T04:24:20;11.10;99.90
62998;DHT22;55949;52.590;7.330;2023-04-24T04:25:24;11.10;99.90
62998;DHT22;55949;52.590;7.330;2023-04-24T04:26:25;11.00;99.90
62998;DHT22;55949;52.590;7.330;2023-04-24T04:27:26;10.90;99.90
62998;DHT22;55949;52.590;7.330;2023-04-24T04:28:27;11.00;99.90
62998;DHT22;55949;52.590;7.330;2023-04-24T04:29:28;11.00;99.90
62998;DHT22;55949;52.590;7.330;2023-04-24T04:30:29;11.20;99.90
62998;DHT22;55949;52.590;7.330;2023-04-24T04:31:32;11.10;99.90
62998;DHT22;55949;52.590;7.330;2023-04-24T04:32:33;11.10;99.90
62998;DHT22;55949;52.590;7.330;2023-04-24T04:33:34;11.20;99.90
62998;DHT22;55949;52.590;7.330;2023-04-24T04:34:36;11.10;99.90
62998;DHT22;55949;52.590;7.330;2023-04-24T04:35:38;11.10;99.90
62998;DHT22;55949;52.590;7.330;2023-04-24T04:36:38;11.10;99.90
62998;DHT22;55949;52.590;7.330;2023-04-24T04:37:40;11.20;99.90
62998;DHT22;55949;52.590;7.330;2023-04-24T04:38:41;11.20;99.90
62998;DHT22;55949;52.590;7.330;2023-04-24T04:39:43;11.10;99.90
62998;DHT22;55949;52.590;7.330;2023-04-24T04:40:44;11.10;99.90
62998;DHT22;55949;52.590;7.330;2023-04-24T04:41:45;11.20;99.90
62998;DHT22;55949;52.590;7.330;2023-04-24T04:42:49;11.10;99.90
62998;DHT22;55949;52.590;7.330;2023-04-24T04:43:53;11.20;99.90
62998;DHT22;55949;52.590;7.330;2023-04-24T04:44:54;11.20;99.90
62998;DHT22;55949;52.590;7.330;2023-04-24T04:45:57;11.20;99.90
62998;DHT22;55949;52.590;7.330;2023-04-24T04:46:58;11.10;99.90
62998;DHT22;55949;52.590;7.330;2023-04-24T04:48:01;11.10;99.90
62998;DHT22;55949;52.590;7.330;2023-04-24T04:49:02;11.00;99.90
62998;DHT22;55949;52.590;7.330;2023-04-24T04:50:03;11.00;99.90
62998;DHT22;55949;52.590;7.330;2023-04-24T04:51:05;11.10;99.90
62998;DHT22;55949;52.590;7.330;2023-04-24T04:52:06;10.90;99.90
62998;DHT22;55949;52.590;7.330;2023-04-24T04:53:07;10.80;99.90
62998;DHT22;55949;52.590;7.330;2023-04-24T04:54:08;10.70;99.90
62998;DHT22;55949;52.590;7.330;2023-04-24T04:55:09;10.70;99.90
62998;DHT22;55949;52.590;7.330;2023-04-24T04:56:09;10.70;99.90
62998;DHT22;55949;52.590;7.330;2023-04-24T04:57:10;10.70;99.90
62998;DHT22;55949;52.590;7.330;2023-04-24T04:58:11;10.70;99.90
62998;DHT22;55949;52.590;7.330;2023-04-24T04:59:12;10.70;99.90
62998;DHT22;55949;52.590;7.330;2023-04-24T05:00:13;10.80;99.90
62998;DHT22;55949;52.590;7.330;2023-04-24T05:01:14;10.80;99.90
62998;DHT22;55949;52.590;7.330;2023-04-24T05:02:14;10.80;99.90
62998;DHT22;55949;52.590;7.330;2023-04-24T05:03:16;10.80;99.90
62998;DHT22;55949;52.590;7.330;2023-04-24T05:04:16;10.90;99.90
62998;DHT22;55949;52.590;7.330;2023-04-24T05:05:17;11.00;99.90
62998;DHT22;55949;52.590;7.330;2023-04-24T05:06:19;10.90;99.90
62998;DHT22;55949;52.590;7.330;2023-04-24T05:07:20;11.00;99.90
62998;DHT22;55949;52.590;7.330;2023-04-24T05:08:20;11.10;99.90
62998;DHT22;55949;52.590;7.330;2023-04-24T05:09:21;10.80;99.90
62998;DHT22;55949;52.590;7.330;2023-04-24T05:10:22;10.90;99.90
62998;DHT22;55949;52.590;7.330;2023-04-24T05:11:23;10.80;99.90
62998;DHT22;55949;52.590;7.330;2023-04-24T05:12:24;10.90;99.90
62998;DHT22;55949;52.590;7.330;2023-04-24T05:13:24;11.00;99.90
62998;DHT22;55949;52.590;7.330;2023-04-24T05:14:25;11.00;99.90
62998;DHT22;55949;52.590;7.330;2023-04-24T05:15:26;11.00;99.90
62998;DHT22;55949;52.590;7.330;2023-04-24T05:16:26;10.90;99.90
62998;DHT22;55949;52.590;7.330;2023-04-24T05:17:27;11.00;99.90
62998;DHT22;55949;52.590;7.330;2023-04-24T05:18:28;11.10;99.90
62998;DHT22;55949;52.590;7.330;2023-04-24T05:19:28;10.90;99.90
62998;DHT22;55949;52.590;7.330;2023-04-24T05:20:30;10.90;99.90
62998;DHT22;55949;52.590;7.330;2023-04-24T05:21:31;10.90;99.90
62998;DHT22;55949;52.590;7.330;2023-04-24T05:22:32;10.80;99.90
62998;DHT22;55949;52.590;7.330;2023-04-24T05:23:32;10.90;99.90
62998;DHT22;55949;52.590;7.330;2023-04-24T05:24:34;11.00;99.90
62998;DHT22;55949;52.590;7.330;2023-04-24T05:25:35;10.90;99.90
62998;DHT22;55949;52.590;7.330;2023-04-24T05:26:36;11.00;99.90
62998;DHT22;55949;52.590;7.330;2023-04-24T05:27:37;11.10;99.90
62998;DHT22;55949;52.590;7.330;2023-04-24T05:28:38;11.10;99.90
62998;DHT22;55949;52.590;7.330;2023-04-24T05:29:39;11.10;99.90
62998;DHT22;55949;52.590;7.330;2023-04-24T05:30:40;11.10;99.90
62998;DHT22;55949;52.590;7.330;2023-04-24T05:31:41;11.40;99.90
62998;DHT22;55949;52.590;7.330;2023-04-24T05:32:42;11.30;99.90
62998;DHT22;55949;52.590;7.330;2023-04-24T05:33:42;11.40;99.90
62998;DHT22;55949;52.590;7.330;2023-04-24T05:34:43;11.40;99.90
62998;DHT22;55949;52.590;7.330;2023-04-24T05:35:44;11.40;99.90
62998;DHT22;55949;52.590;7.330;2023-04-24T05:36:47;11.40;99.90
62998;DHT22;55949;52.590;7.330;2023-04-24T05:37:48;11.50;99.90
62998;DHT22;55949;52.590;7.330;2023-04-24T05:38:49;11.40;99.90
62998;DHT22;55949;52.590;7.330;2023-04-24T05:39:50;11.30;99.90
62998;DHT22;55949;52.590;7.330;2023-04-24T05:40:51;11.10;99.90
62998;DHT22;55949;52.590;7.330;2023-04-24T05:41:52;11.00;99.90
62998;DHT22;55949;52.590;7.330;2023-04-24T05:42:53;11.10;99.90
62998;DHT22;55949;52.590;7.330;2023-04-24T05:43:54;11.20;99.90
62998;DHT22;55949;52.590;7.330;2023-04-24T05:44:56;11.30;99.90
62998;DHT22;55949;52.590;7.330;2023-04-24T05:45:57;11.40;99.90
62998;DHT22;55949;52.590;7.330;2023-04-24T05:46:58;11.40;99.90
62998;DHT22;55949;52.590;7.330;2023-04-24T05:47:59;11.50;99.90
62998;DHT22;55949;52.590;7.330;2023-04-24T05:49:00;11.50;99.90
62998;DHT22;55949;52.590;7.330;2023-04-24T05:50:01;11.20;99.90
62998;DHT22;55949;52.590;7.330;2023-04-24T05:51:03;11.30;99.90
62998;DHT22;55949;52.590;7.330;2023-04-24T05:52:04;11.20;99.90
62998;DHT22;55949;52.590;7.330;2023-04-24T05:53:07;11.00;99.90
62998;DHT22;55949;52.590;7.330;2023-04-24T05:54:08;11.00;99.90
62998;DHT22;55949;52.590;7.330;2023-04-24T05:55:09;10.90;99.90
62998;DHT22;55949;52.590;7.330;2023-04-24T05:56:10;10.80;99.90
62998;DHT22;55949;52.590;7.330;2023-04-24T05:57:11;10.90;99.90
62998;DHT22;55949;52.590;7.330;2023-04-24T05:58:12;10.90;99.90
62998;DHT22;55949;52.590;7.330;2023-04-24T05:59:13;10.90;99.90
62998;DHT22;55949;52.590;7.330;2023-04-24T06:00:14;10.80;99.90
62998;DHT22;55949;52.590;7.330;2023-04-24T06:01:14;10.60;99.90
62998;DHT22;55949;52.590;7.330;2023-04-24T06:02:16;10.50;99.90
62998;DHT22;55949;52.590;7.330;2023-04-24T06:03:17;10.70;99.90
62998;DHT22;55949;52.590;7.330;2023-04-24T06:04:18;10.60;99.90
62998;DHT22;55949;52.590;7.330;2023-04-24T06:05:18;10.60;99.90
62998;DHT22;55949;52.590;7.330;2023-04-24T06:06:19;10.80;99.90
62998;DHT22;55949;52.590;7.330;2023-04-24T06:07:20;10.90;99.90
62998;DHT22;55949;52.590;7.330;2023-04-24T06:08:21;10.80;99.90
62998;DHT22;55949;52.590;7.330;2023-04-24T06:09:22;10.70;99.90
62998;DHT22;55949;52.590;7.330;2023-04-24T06:10:23;10.80;99.90
62998;DHT22;55949;52.590;7.330;2023-04-24T06:11:24;10.60;99.90
62998;DHT22;55949;52.590;7.330;2023-04-24T06:12:25;10.40;99.90
62998;DHT22;55949;52.590;7.330;2023-04-24T06:13:26;10.50;99.90
62998;DHT22;55949;52.590;7.330;2023-04-24T06:14:27;10.50;99.90
62998;DHT22;55949;52.590;7.330;2023-04-24T06:15:29;10.60;99.90
62998;DHT22;55949;52.590;7.330;2023-04-24T06:16:33;10.60;99.90
62998;DHT22;55949;52.590;7.330;2023-04-24T06:17:34;10.70;99.90
62998;DHT22;55949;52.590;7.330;2023-04-24T06:18:34;10.80;99.90
62998;DHT22;55949;52.590;7.330;2023-04-24T06:19:35;10.80;99.90
62998;DHT22;55949;52.590;7.330;2023-04-24T06:20:36;11.00;99.90
62998;DHT22;55949;52.590;7.330;2023-04-24T06:21:37;11.00;99.90
62998;DHT22;55949;52.590;7.330;2023-04-24T06:22:38;10.80;99.90
62998;DHT22;55949;52.590;7.330;2023-04-24T06:23:40;10.90;99.90
62998;DHT22;55949;52.590;7.330;2023-04-24T06:24:41;10.80;99.90
62998;DHT22;55949;52.590;7.330;2023-04-24T06:25:42;10.90;99.90